createdAt,value
2018-07-23T00:02:05.556Z,16.80
2018-07-23T00:04:40.702Z,16.80
2018-07-23T00:07:15.844Z,16.80
2018-07-23T00:09:51.039Z,16.80
2018-07-23T00:12:26.001Z,16.80
2018-07-23T00:15:00.987Z,16.80
2018-07-23T00:17:36.111Z,16.80
2018-07-23T00:20:11.320Z,16.70
2018-07-23T00:22:46.466Z,16.80
2018-07-23T00:25:21.707Z,16.80
2018-07-23T00:27:56.713Z,16.80
2018-07-23T00:30:31.904Z,16.80
2018-07-23T00:33:06.963Z,16.80
2018-07-23T00:35:42.104Z,16.80
2018-07-23T00:38:17.272Z,16.70
2018-07-23T00:40:52.389Z,16.70
2018-07-23T00:43:27.614Z,16.70
2018-07-23T00:46:02.914Z,16.70
2018-07-23T00:48:38.039Z,16.70
2018-07-23T00:51:13.049Z,16.70
2018-07-23T00:53:48.270Z,16.70
2018-07-23T00:56:23.309Z,16.70
2018-07-23T00:58:58.506Z,16.70
2018-07-23T01:01:33.727Z,16.70
2018-07-23T01:04:08.958Z,16.70
2018-07-23T01:06:44.214Z,16.70
2018-07-23T01:09:19.213Z,16.70
2018-07-23T01:11:54.431Z,16.80
2018-07-23T01:14:29.473Z,16.80
2018-07-23T01:17:04.666Z,16.80
2018-07-23T01:19:39.886Z,16.80
2018-07-23T01:22:14.951Z,16.80
2018-07-23T01:24:49.914Z,16.80
2018-07-23T01:27:25.142Z,16.70
2018-07-23T01:30:00.285Z,16.70
2018-07-23T01:32:35.357Z,16.70
2018-07-23T01:35:10.564Z,16.70
2018-07-23T01:37:45.720Z,16.70
2018-07-23T01:40:20.944Z,16.60
2018-07-23T01:42:55.951Z,16.60
2018-07-23T01:45:30.967Z,16.60
2018-07-23T01:48:06.268Z,16.60
2018-07-23T01:50:41.487Z,16.50
2018-07-23T01:53:16.578Z,16.50
2018-07-23T01:55:51.745Z,16.50
2018-07-23T01:58:27.058Z,16.60
2018-07-23T02:01:07.348Z,16.50
2018-07-23T02:03:42.736Z,16.50
2018-07-23T02:06:17.783Z,16.60
2018-07-23T02:08:53.024Z,16.60
2018-07-23T02:11:28.182Z,16.60
2018-07-23T02:14:03.418Z,16.60
2018-07-23T02:16:38.532Z,16.60
2018-07-23T02:19:13.532Z,16.60
2018-07-23T02:21:48.518Z,16.60
2018-07-23T02:24:23.718Z,16.60
2018-07-23T02:26:58.743Z,16.60
2018-07-23T02:29:33.834Z,16.60
2018-07-23T02:32:08.930Z,16.60
2018-07-23T02:34:44.128Z,16.70
2018-07-23T02:37:19.362Z,16.70
2018-07-23T02:39:54.371Z,16.70
2018-07-23T02:42:29.363Z,16.70
2018-07-23T02:45:04.606Z,16.70
2018-07-23T02:47:39.792Z,16.80
2018-07-23T02:50:15.039Z,16.80
2018-07-23T02:52:50.215Z,16.80
2018-07-23T02:55:25.416Z,16.80
2018-07-23T02:58:00.481Z,16.80
2018-07-23T03:00:35.594Z,16.80
2018-07-23T03:03:10.829Z,16.90
2018-07-23T03:05:46.066Z,16.80
2018-07-23T03:08:21.406Z,16.90
2018-07-23T03:10:56.599Z,16.90
2018-07-23T03:13:31.733Z,16.90
2018-07-23T03:16:07.018Z,16.90
2018-07-23T03:18:42.251Z,16.90
2018-07-23T03:21:17.270Z,16.90
2018-07-23T03:23:52.545Z,16.90
2018-07-23T03:26:27.758Z,16.90
2018-07-23T03:29:02.875Z,16.90
2018-07-23T03:31:37.907Z,16.90
2018-07-23T03:34:12.978Z,16.90
2018-07-23T03:36:48.051Z,16.90
2018-07-23T03:39:23.285Z,16.90
2018-07-23T03:41:58.539Z,16.90
2018-07-23T03:44:33.694Z,16.90
2018-07-23T03:47:08.863Z,16.90
2018-07-23T03:49:43.919Z,16.90
2018-07-23T03:52:19.295Z,16.90
2018-07-23T03:54:54.367Z,16.80
2018-07-23T03:57:29.558Z,16.80
2018-07-23T04:00:04.947Z,16.80
2018-07-23T04:02:40.112Z,16.70
2018-07-23T04:05:15.171Z,16.70
2018-07-23T04:07:50.180Z,16.70
2018-07-23T04:10:25.142Z,16.70
2018-07-23T04:13:00.270Z,16.70
2018-07-23T04:15:35.391Z,16.80
2018-07-23T04:18:10.586Z,16.80
2018-07-23T04:20:45.638Z,16.80
2018-07-23T04:23:20.720Z,16.80
2018-07-23T04:25:55.870Z,16.80
2018-07-23T04:28:31.226Z,16.80
2018-07-23T04:31:07.022Z,16.80
2018-07-23T04:33:42.198Z,16.80
2018-07-23T04:36:17.455Z,16.90
2018-07-23T04:38:52.751Z,16.80
2018-07-23T04:41:27.942Z,16.90
2018-07-23T04:44:03.121Z,16.80
2018-07-23T04:46:39.186Z,16.80
2018-07-23T04:49:14.333Z,16.90
2018-07-23T04:51:49.514Z,16.80
2018-07-23T04:54:24.612Z,16.90
2018-07-23T04:56:59.789Z,16.90
2018-07-23T04:59:34.901Z,16.90
2018-07-23T05:02:10.147Z,16.80
2018-07-23T05:04:45.315Z,16.80
2018-07-23T05:07:20.924Z,16.70
2018-07-23T05:09:55.982Z,16.70
2018-07-23T05:12:30.950Z,16.70
2018-07-23T05:15:06.423Z,16.70
2018-07-23T05:17:41.535Z,16.70
2018-07-23T05:20:16.589Z,16.70
2018-07-23T05:22:51.614Z,16.70
2018-07-23T05:25:26.787Z,16.70
2018-07-23T05:28:01.919Z,16.70
2018-07-23T05:30:36.925Z,16.60
2018-07-23T05:33:12.007Z,16.70
2018-07-23T05:35:47.010Z,16.70
2018-07-23T05:38:22.273Z,16.70
2018-07-23T05:40:57.710Z,16.80
2018-07-23T05:43:32.888Z,16.80
2018-07-23T05:46:07.986Z,16.80
2018-07-23T05:48:43.009Z,16.90
2018-07-23T05:51:17.988Z,16.90
2018-07-23T05:53:53.027Z,16.90
2018-07-23T05:56:28.035Z,17.00
2018-07-23T05:59:03.222Z,17.00
2018-07-23T06:01:38.264Z,17.00
2018-07-23T06:04:13.364Z,17.10
2018-07-23T06:06:48.718Z,17.20
2018-07-23T06:09:23.726Z,17.20
2018-07-23T06:11:58.796Z,17.30
2018-07-23T06:14:33.986Z,17.30
2018-07-23T06:17:09.222Z,17.30
2018-07-23T06:19:44.367Z,17.30
2018-07-23T06:22:19.411Z,17.40
2018-07-23T06:24:54.606Z,17.50
2018-07-23T06:27:29.730Z,17.50
2018-07-23T06:30:07.661Z,17.60
2018-07-23T06:32:42.614Z,17.60
2018-07-23T06:35:17.759Z,17.60
2018-07-23T06:37:52.957Z,17.50
2018-07-23T06:40:27.935Z,17.50
2018-07-23T06:43:03.094Z,17.50
2018-07-23T06:45:38.392Z,17.60
2018-07-23T06:48:13.382Z,17.60
2018-07-23T06:50:48.607Z,17.70
2018-07-23T06:53:23.797Z,17.70
2018-07-23T06:55:58.938Z,17.70
2018-07-23T06:58:34.220Z,17.80
2018-07-23T07:01:09.367Z,17.80
2018-07-23T07:03:44.576Z,17.80
2018-07-23T07:06:19.662Z,17.80
2018-07-23T07:08:54.859Z,17.90
2018-07-23T07:11:30.090Z,17.90
2018-07-23T07:14:05.296Z,18.00
2018-07-23T07:16:40.556Z,18.20
2018-07-23T07:19:15.819Z,18.40
2018-07-23T07:21:50.991Z,18.60
2018-07-23T07:24:26.196Z,18.90
2018-07-23T07:27:01.328Z,19.00
2018-07-23T07:29:36.629Z,19.10
2018-07-23T07:32:11.845Z,19.00
2018-07-23T07:34:46.951Z,19.10
2018-07-23T07:37:22.359Z,19.20
2018-07-23T07:39:57.576Z,19.20
2018-07-23T07:42:32.646Z,19.20
2018-07-23T07:45:08.093Z,19.10
2018-07-23T07:47:43.175Z,19.10
2018-07-23T07:50:18.330Z,19.10
2018-07-23T07:52:53.382Z,19.20
2018-07-23T07:55:28.423Z,19.20
2018-07-23T07:58:03.622Z,19.20
2018-07-23T08:00:40.842Z,19.10
2018-07-23T08:03:16.323Z,19.00
2018-07-23T08:05:51.404Z,19.00
2018-07-23T08:08:26.617Z,19.10
2018-07-23T08:11:01.868Z,19.10
2018-07-23T08:13:37.030Z,19.10
2018-07-23T08:16:12.416Z,19.10
2018-07-23T08:18:47.654Z,19.10
2018-07-23T08:23:57.475Z,19.10
2018-07-23T08:26:32.573Z,19.20
2018-07-23T08:29:07.667Z,19.10
2018-07-23T08:31:42.817Z,19.10
2018-07-23T08:34:17.979Z,19.10
2018-07-23T08:36:53.128Z,19.10
2018-07-23T08:39:28.371Z,19.20
2018-07-23T08:42:03.403Z,19.30
2018-07-23T08:44:38.626Z,19.40
2018-07-23T08:47:13.805Z,19.60
2018-07-23T08:49:48.988Z,19.80
2018-07-23T08:52:24.181Z,20.00
2018-07-23T08:54:59.496Z,20.20
2018-07-23T08:57:34.667Z,20.30
2018-07-23T09:00:09.715Z,20.50
2018-07-23T09:02:44.883Z,20.80
2018-07-23T09:05:20.061Z,21.00
2018-07-23T09:07:55.176Z,21.00
2018-07-23T09:10:30.236Z,20.90
2018-07-23T09:13:05.647Z,20.70
2018-07-23T09:15:40.742Z,20.50
2018-07-23T09:18:15.924Z,20.40
2018-07-23T09:20:51.163Z,20.20
2018-07-23T09:23:26.254Z,20.10
2018-07-23T09:26:01.249Z,20.10
2018-07-23T09:28:36.440Z,20.10
2018-07-23T09:31:11.363Z,20.30
2018-07-23T09:33:47.189Z,20.50
2018-07-23T09:36:22.249Z,20.60
2018-07-23T09:38:57.267Z,20.80
2018-07-23T09:41:32.583Z,20.80
2018-07-23T09:44:07.824Z,21.00
2018-07-23T09:46:42.822Z,21.00
2018-07-23T09:49:17.973Z,20.90
2018-07-23T09:51:53.010Z,20.80
2018-07-23T09:54:28.235Z,20.80
2018-07-23T09:57:03.399Z,20.70
2018-07-23T09:59:38.538Z,20.70
2018-07-23T10:02:13.780Z,20.90
2018-07-23T10:04:48.834Z,21.20
2018-07-23T10:07:24.306Z,21.60
2018-07-23T10:09:59.458Z,21.80
2018-07-23T10:12:34.592Z,21.90
2018-07-23T10:15:09.651Z,21.90
2018-07-23T10:17:44.994Z,21.80
2018-07-23T10:20:20.233Z,21.70
2018-07-23T10:22:55.455Z,21.60
2018-07-23T10:25:30.612Z,21.50
2018-07-23T10:28:05.608Z,21.50
2018-07-23T10:30:40.788Z,21.70
2018-07-23T10:33:15.935Z,21.90
2018-07-23T10:35:51.115Z,22.10
2018-07-23T10:38:26.143Z,22.30
2018-07-23T10:41:01.235Z,22.60
2018-07-23T10:43:36.388Z,22.60
2018-07-23T10:46:11.671Z,22.80
2018-07-23T10:48:46.724Z,22.80
2018-07-23T10:51:26.436Z,22.90
2018-07-23T10:56:50.754Z,23.40
2018-07-23T10:59:26.150Z,23.20
2018-07-23T11:02:02.161Z,23.10
2018-07-23T11:04:40.198Z,23.10
2018-07-23T11:07:15.516Z,22.90
2018-07-23T11:09:50.813Z,22.80
2018-07-23T11:12:26.090Z,22.70
2018-07-23T11:15:01.472Z,22.80
2018-07-23T11:17:37.148Z,22.90
2018-07-23T11:20:12.978Z,23.10
2018-07-23T11:22:47.992Z,23.40
2018-07-23T11:27:58.376Z,23.70
2018-07-23T11:30:33.627Z,23.80
2018-07-23T11:33:08.680Z,24.00
2018-07-23T11:35:43.875Z,24.30
2018-07-23T11:38:19.109Z,24.60
2018-07-23T11:40:54.336Z,24.90
2018-07-23T11:43:29.388Z,25.20
2018-07-23T11:46:04.406Z,25.50
2018-07-23T11:48:39.563Z,25.50
2018-07-23T11:51:14.756Z,25.40
2018-07-23T11:53:49.997Z,25.40
2018-07-23T11:56:25.275Z,25.20
2018-07-23T11:59:00.502Z,24.70
2018-07-23T12:01:35.683Z,24.20
2018-07-23T12:04:10.873Z,24.00
2018-07-23T12:06:46.079Z,24.00
2018-07-23T12:09:21.079Z,24.00
2018-07-23T12:11:56.342Z,24.10
2018-07-23T12:14:32.417Z,24.20
2018-07-23T12:17:07.605Z,24.30
2018-07-23T12:19:42.880Z,24.40
2018-07-23T12:22:18.041Z,24.30
2018-07-23T12:24:53.113Z,24.50
2018-07-23T12:27:28.097Z,24.70
2018-07-23T12:30:03.312Z,25.10
2018-07-23T12:32:38.538Z,25.50
2018-07-23T12:35:13.677Z,25.90
2018-07-23T12:37:48.746Z,26.10
2018-07-23T12:40:24.360Z,26.20
2018-07-23T12:42:59.566Z,26.30
2018-07-23T12:45:34.767Z,26.40
2018-07-23T12:48:10.158Z,26.50
2018-07-23T12:50:45.345Z,26.70
2018-07-23T12:53:20.535Z,27.00
2018-07-23T12:55:55.751Z,27.00
2018-07-23T12:58:30.947Z,27.10
2018-07-23T13:01:06.167Z,26.90
2018-07-23T13:03:41.414Z,26.70
2018-07-23T13:06:16.462Z,26.50
2018-07-23T13:08:52.413Z,26.60
2018-07-23T13:11:27.617Z,26.80
2018-07-23T13:14:02.822Z,27.00
2018-07-23T13:16:38.038Z,27.00
2018-07-23T13:19:13.354Z,26.90
2018-07-23T13:21:48.355Z,27.00
2018-07-23T13:24:23.624Z,27.30
2018-07-23T13:26:58.708Z,27.60
2018-07-23T13:29:33.714Z,27.40
2018-07-23T13:32:08.919Z,27.20
2018-07-23T13:34:44.226Z,27.10
2018-07-23T13:37:19.512Z,26.50
2018-07-23T13:39:54.598Z,26.30
2018-07-23T13:42:36.139Z,26.20
2018-07-23T13:45:11.166Z,26.30
2018-07-23T13:47:46.214Z,26.50
2018-07-23T13:50:21.495Z,26.60
2018-07-23T13:52:56.519Z,26.60
2018-07-23T13:55:31.554Z,26.50
2018-07-23T13:58:06.786Z,26.40
2018-07-23T14:00:41.947Z,26.40
2018-07-23T14:03:17.061Z,26.30
2018-07-23T14:05:52.370Z,26.40
2018-07-23T14:08:27.616Z,26.30
2018-07-23T14:11:02.729Z,26.10
2018-07-23T14:13:37.827Z,26.40
2018-07-23T14:16:13.111Z,26.50
2018-07-23T14:18:48.340Z,26.50
2018-07-23T14:21:23.358Z,26.70
2018-07-23T14:23:58.618Z,27.20
2018-07-23T14:26:33.775Z,27.40
2018-07-23T14:29:08.867Z,27.60
2018-07-23T14:31:43.879Z,27.70
2018-07-23T14:34:19.855Z,27.60
2018-07-23T14:36:54.998Z,27.30
2018-07-23T14:39:30.055Z,27.20
2018-07-23T14:42:05.263Z,27.40
2018-07-23T14:44:40.452Z,27.70
2018-07-23T14:47:15.558Z,27.80
2018-07-23T14:49:50.953Z,27.50
2018-07-23T14:52:26.232Z,27.20
2018-07-23T14:55:01.392Z,26.70
2018-07-23T14:57:36.571Z,26.30
2018-07-23T15:00:11.774Z,25.90
2018-07-23T15:02:47.054Z,25.40
2018-07-23T15:05:22.243Z,25.00
2018-07-23T15:07:57.311Z,24.90
2018-07-23T15:10:32.766Z,26.10
2018-07-23T15:13:07.936Z,28.60
2018-07-23T15:15:43.155Z,31.60
2018-07-23T15:18:18.363Z,34.10
2018-07-23T15:20:53.562Z,34.50
2018-07-23T15:23:28.567Z,35.10
2018-07-23T15:26:03.917Z,35.20
2018-07-23T15:28:39.148Z,34.50
2018-07-23T15:31:14.354Z,33.30
2018-07-23T15:33:49.506Z,31.90
2018-07-23T15:36:24.692Z,31.60
2018-07-23T15:39:02.052Z,31.50
2018-07-23T15:41:37.595Z,32.10
2018-07-23T15:44:12.888Z,33.40
2018-07-23T15:46:48.067Z,35.10
2018-07-23T15:49:23.282Z,36.30
2018-07-23T15:51:58.449Z,36.70
2018-07-23T15:54:33.630Z,36.90
2018-07-23T15:57:08.879Z,36.80
2018-07-23T15:59:44.250Z,36.40
2018-07-23T16:02:19.432Z,36.20
2018-07-23T16:04:55.635Z,35.90
2018-07-23T16:07:31.070Z,35.20
2018-07-23T16:10:06.383Z,34.60
2018-07-23T16:12:41.632Z,34.00
2018-07-23T16:15:16.818Z,33.20
2018-07-23T16:17:52.180Z,32.30
2018-07-23T16:20:27.298Z,31.50
2018-07-23T16:23:02.429Z,30.80
2018-07-23T16:25:37.791Z,30.30
2018-07-23T16:28:13.025Z,29.90
2018-07-23T16:30:48.152Z,29.40
2018-07-23T16:33:23.207Z,29.10
2018-07-23T16:35:58.276Z,28.80
2018-07-23T16:38:33.490Z,28.20
2018-07-23T16:41:08.566Z,27.70
2018-07-23T16:43:43.762Z,27.40
2018-07-23T16:46:18.928Z,27.20
2018-07-23T16:48:54.121Z,27.20
2018-07-23T16:51:29.310Z,27.00
2018-07-23T16:54:04.506Z,26.70
2018-07-23T16:56:39.776Z,26.30
2018-07-23T16:59:14.870Z,26.10
2018-07-23T17:01:49.889Z,25.90
2018-07-23T17:04:24.973Z,25.90
2018-07-23T17:07:00.103Z,25.80
2018-07-23T17:09:35.330Z,25.90
2018-07-23T17:12:10.545Z,25.80
2018-07-23T17:14:45.765Z,25.60
2018-07-23T17:17:21.457Z,25.40
2018-07-23T17:22:31.392Z,25.30
2018-07-23T17:25:06.588Z,25.20
2018-07-23T17:27:41.638Z,25.20
2018-07-23T17:30:16.924Z,25.20
2018-07-23T17:32:52.389Z,25.30
2018-07-23T17:35:27.610Z,25.30
2018-07-23T17:38:02.754Z,25.30
2018-07-23T17:40:37.864Z,25.30
2018-07-23T17:43:14.233Z,25.20
2018-07-23T17:45:49.541Z,25.10
2018-07-23T17:48:24.755Z,24.90
2018-07-23T17:51:00.208Z,24.80
2018-07-23T17:53:35.240Z,24.60
2018-07-23T17:56:10.569Z,24.40
2018-07-23T17:58:45.814Z,24.30
2018-07-23T18:01:21.786Z,24.20
2018-07-23T18:03:56.991Z,24.10
2018-07-23T18:06:32.334Z,24.10
2018-07-23T18:09:10.127Z,24.00
2018-07-23T18:11:45.362Z,23.90
2018-07-23T18:14:20.468Z,23.80
2018-07-23T18:16:56.046Z,23.70
2018-07-23T18:19:31.328Z,23.70
2018-07-23T18:22:06.466Z,23.60
2018-07-23T18:24:42.524Z,23.50
2018-07-23T18:27:17.870Z,23.40
2018-07-23T18:29:53.589Z,23.30
2018-07-23T18:32:28.835Z,23.20
2018-07-23T18:35:04.876Z,23.00
2018-07-23T18:37:40.239Z,22.90
2018-07-23T18:40:16.202Z,22.80
2018-07-23T18:42:52.576Z,22.70
2018-07-23T18:45:27.832Z,22.60
2018-07-23T18:48:04.951Z,22.60
2018-07-23T18:50:40.207Z,22.50
2018-07-23T18:53:20.382Z,22.40
2018-07-23T18:55:55.435Z,22.40
2018-07-23T18:58:30.770Z,22.30
2018-07-23T19:01:06.649Z,22.20
2018-07-23T19:03:41.848Z,22.20
2018-07-23T19:06:17.059Z,22.10
2018-07-23T19:08:52.274Z,22.10
2018-07-23T19:14:02.050Z,22.00
2018-07-23T19:16:37.664Z,22.00
2018-07-23T19:19:13.017Z,21.90
2018-07-23T19:21:48.178Z,21.90
2018-07-23T19:24:23.457Z,21.90
2018-07-23T19:26:58.825Z,21.80
2018-07-23T19:29:34.086Z,21.80
2018-07-23T19:32:09.442Z,21.80
2018-07-23T19:34:44.741Z,21.80
2018-07-23T19:37:21.086Z,21.80
2018-07-23T19:39:56.331Z,21.80
2018-07-23T19:42:32.491Z,21.80
2018-07-23T19:45:07.615Z,21.70
2018-07-23T19:47:42.988Z,21.70
2018-07-23T19:50:18.688Z,21.60
2018-07-23T19:52:54.470Z,21.60
2018-07-23T19:55:29.697Z,21.60
2018-07-23T19:58:04.725Z,21.50
2018-07-23T20:00:39.935Z,21.40
2018-07-23T20:03:15.023Z,21.20
2018-07-23T20:05:50.238Z,21.20
2018-07-23T20:08:25.435Z,21.10
2018-07-23T20:11:01.375Z,21.10
2018-07-23T20:13:36.547Z,21.00
2018-07-23T20:16:11.866Z,21.00
2018-07-23T20:18:47.326Z,21.00
2018-07-23T20:21:22.548Z,21.00
2018-07-23T20:23:57.812Z,20.90
2018-07-23T20:26:33.126Z,20.80
2018-07-23T20:29:08.387Z,20.80
2018-07-23T20:31:43.690Z,20.70
2018-07-23T20:34:18.928Z,20.70
2018-07-23T20:36:54.206Z,20.60
2018-07-23T20:39:29.497Z,20.60
2018-07-23T20:42:04.619Z,20.60
2018-07-23T20:44:39.981Z,20.60
2018-07-23T20:47:15.139Z,20.60
2018-07-23T20:49:50.364Z,20.60
2018-07-23T20:52:25.602Z,20.60
2018-07-23T20:55:00.989Z,20.50
2018-07-23T20:57:36.205Z,20.50
2018-07-23T21:00:12.179Z,20.40
2018-07-23T21:02:47.418Z,20.30
2018-07-23T21:05:22.671Z,20.30
2018-07-23T21:07:58.387Z,20.20
2018-07-23T21:10:33.728Z,20.20
2018-07-23T21:13:08.989Z,20.20
2018-07-23T21:15:44.358Z,20.10
2018-07-23T21:18:19.523Z,20.00
2018-07-23T21:20:54.706Z,20.00
2018-07-23T21:23:29.862Z,20.00
2018-07-23T21:26:05.566Z,20.00
2018-07-23T21:28:40.796Z,20.00
2018-07-23T21:31:16.735Z,19.90
2018-07-23T21:33:51.795Z,19.90
2018-07-23T21:36:26.918Z,19.80
2018-07-23T21:39:02.139Z,19.80
2018-07-23T21:41:37.500Z,19.80
2018-07-23T21:44:12.653Z,19.80
2018-07-23T21:46:48.036Z,19.80
2018-07-23T21:49:24.314Z,19.80
2018-07-23T21:52:06.258Z,19.70
2018-07-23T21:54:44.532Z,19.70
2018-07-23T21:57:20.977Z,19.70
2018-07-23T21:59:56.162Z,19.60
2018-07-23T22:02:31.449Z,19.60
2018-07-23T22:05:07.066Z,19.60
2018-07-23T22:07:42.153Z,19.60
2018-07-23T22:10:17.771Z,19.60
2018-07-23T22:12:53.617Z,19.50
2018-07-23T22:15:28.617Z,19.40
2018-07-23T22:18:03.903Z,19.40
2018-07-23T22:23:13.791Z,19.40
2018-07-23T22:25:49.240Z,19.30
2018-07-23T22:28:24.446Z,19.30
2018-07-23T22:30:59.706Z,19.30
2018-07-23T22:33:34.906Z,19.20
2018-07-23T22:36:10.111Z,19.20
2018-07-23T22:38:45.267Z,19.20
2018-07-23T22:41:20.583Z,19.20
2018-07-23T22:43:55.639Z,19.20
2018-07-23T22:46:30.712Z,19.20
2018-07-23T22:49:05.965Z,19.10
2018-07-23T22:51:41.282Z,19.10
2018-07-23T22:54:16.496Z,19.10
2018-07-23T22:56:51.550Z,19.00
2018-07-23T23:02:03.407Z,18.80
2018-07-23T23:04:38.434Z,18.80
2018-07-23T23:07:13.507Z,18.70
2018-07-23T23:09:48.797Z,18.60
2018-07-23T23:12:23.976Z,18.60
2018-07-23T23:14:59.070Z,18.70
2018-07-23T23:17:34.231Z,18.60
2018-07-23T23:20:09.734Z,18.70
2018-07-23T23:22:44.967Z,18.60
2018-07-23T23:25:20.083Z,18.60
2018-07-23T23:27:55.299Z,18.60
2018-07-23T23:30:30.571Z,18.60
2018-07-23T23:33:05.834Z,18.60
2018-07-23T23:35:41.217Z,18.60
2018-07-23T23:38:16.445Z,18.50
2018-07-23T23:40:51.744Z,18.50
2018-07-23T23:46:01.558Z,18.40
2018-07-23T23:48:36.591Z,18.30
2018-07-23T23:51:11.686Z,18.20
2018-07-23T23:53:46.746Z,18.20
2018-07-23T23:56:21.972Z,18.20
2018-07-23T23:58:56.975Z,18.20
